Accueil
METAR-TAF:

METAR-TAF

Aéroports :

Aviano, Italie

Aviano Air Base

latitude: 46-02N, longitude: 012-36E, altitude: 128 m

Observation

Le bulletin a été fait il y a 1 heure et 18 minutes, à 20:55 UTC
Vent 3 kt de nord-est
Température 7°C
Humidité 93%
Pression 1020 hPa
Visibilité: 1700 m
Quelques nuages à une hauteur de 7000 ft
brume

METAR: LIPA 242055Z 04003KT 1700 BR FEW070 07/06 Q1020 RMK FEW VIS MIN 1700 WIND THR05 /////KT WIND THR23 /////KT A3014 YLO

Heure: 23:13 (22:13 UTC)

Prévision

Le bulletin a été fait il y a 2 heures et 13 minutes, à 20:00 UTC
Prévision valable du 24 à 21 UTC au 25 à 06 UTC
Vent 5 kt de direction variable
Visibilité: 1500 m
Nuages épars à une hauteur de 3000 ft
brume
Temporairement
du 24 à 21 UTC au 25 à 06 UTC
Visibilité: 0600 m
Nuages fragmentés à une hauteur de 300 ft
brouillard

TAF: LIPA 242000Z 2421/2506 VRB05KT 1500 BR SCT030 TEMPO 2421/2506 0600 FG BKN003

Observations et prévisions météorologiques de plus de 4000 aéroports (messages METAR et TAF).

Les stations disponibles sont représentées par des disques jaunes et rouges sur la carte.

Passer la souris dessus pour voir le nom de la station.

Cliquer dessus pour voir les observations et prévisions météorologiques.

Pour changer de carte: cliquez sur les boutons verts avec une croix noire pour zoomer, sur le bouton vert avec un tiret pour effectuer un zoom arrière, ou sur les flèches vertes pour les cartes adjacentes.


METAR-TAF: